Nichinan Maru — JM6277 — position and weather

sailwx.info

Track history (hours):
 
Tides and Currents Weather Stations Pressure Air Temp Water Temp Dewpoint Dewpoint Depression Visibility Wind Speed Wind Dir Waves Ship Positions

Nichinan Maru

Last reported at 2017-Nov-18 00:49 UTC. Time now 2017-Nov-21 04:40 UTC.
Position N 34°41' E 134°49'.

Length 67 m; draft 4.8 m.

Type: Ship (hazmat cat A). MMSI: 431500254.

Date/timePositionNaut miles runAvg speedWind from/ knotsBaromVisibWave heightAir tempDewpointWater temp
2017-Nov-18 00:49N 34°41' E 134°49'  
2017-Nov-12 03:11N 34°32' E 135°03'210.4
2017-Nov-12 03:00N 34°34' E 135°04'8 9.2
2017-Nov-12 02:08N 34°36' E 134°54'  
2017-Nov-08 10:30N 34°39' E 134°50'511.1
2017-Nov-08 10:00N 34°37' E 134°56'5 9.7
2017-Nov-08 09:28N 34°37' E 135°02'4 8.1
2017-Nov-08 09:00N 34°34' E 135°05'612.0
2017-Nov-08 08:30N 34°28' E 135°03'711.8
2017-Nov-08 07:53N 34°21' E 135°00'511.5
2017-Nov-08 07:29N 34°16' E 134°59'511.3
2017-Nov-08 07:00N 34°11' E 134°56'  
Track history (hours):
 
Tides and Currents Weather Stations Pressure Air Temp Water Temp Dewpoint Dewpoint Depression Visibility Wind Speed Wind Dir Waves Ship Positions

Nichinan Maru

Last reported at 2017-Nov-18 00:49 UTC. Time now 2017-Nov-21 04:40 UTC.
Position N 34°41' E 134°49'.

Length 67 m; draft 4.8 m.

Type: Ship (hazmat cat A). MMSI: 431500254.

Date/timePositionNaut miles runAvg speedWind from/ knotsBaromVisibWave heightAir tempDewpointWater temp
2017-Nov-18 00:49N 34°41' E 134°49'  
2017-Nov-12 03:11N 34°32' E 135°03'210.4
2017-Nov-12 03:00N 34°34' E 135°04'8 9.2
2017-Nov-12 02:08N 34°36' E 134°54'  
2017-Nov-08 10:30N 34°39' E 134°50'511.1
2017-Nov-08 10:00N 34°37' E 134°56'5 9.7
2017-Nov-08 09:28N 34°37' E 135°02'4 8.1
2017-Nov-08 09:00N 34°34' E 135°05'612.0
2017-Nov-08 08:30N 34°28' E 135°03'711.8
2017-Nov-08 07:53N 34°21' E 135°00'511.5
2017-Nov-08 07:29N 34°16' E 134°59'511.3
2017-Nov-08 07:00N 34°11' E 134°56'  

Dump ship's entire track history